الصفحة الرئيسية
METAR-TAF:

METAR-TAF

مطار :

Yacuíba, بوليفيا

دائرة عرض: 21-57S, خط طول: 063-39W, ارتفاع: 645 متر

مراقبة الطقس الحالي

تاريخ ووقت الإصدار 3ساعات و 43 دقيقة قبل الساعة 20:00UTC
ريح 4 عقدة من الشمال/الشمال الشرقي
درجة الحرارة 22°درجة مئوية
الرطوبة 60%
ضغط 1016 hPa
الرؤية 10 كم أو أكثر
ملبد بالغيوم على ارتفاع 7000 قدم

METAR: SLYA 172000Z 03004KT 9999 OVC070 22/14 Q1016

زمن: 19:43 (23:43 UTC)

توقعات

تاريخ ووقت الإصدار 43ساعات و 43 دقيقة قبل الساعة 04:00UTC
التوقعات صالحة من16 الساعة 06 UTC إلى 17 الساعة 06 UTC
ريح عقدة من الشمال
الرؤية 10 كم أو أكثر
غيوم متفرقة على ارتفاع 1000 قدم
غيوم مفككة على ارتفاع 7000 قدم
أصبح
من 16 الساعة 08 UTC إلى 16 الساعة 10 UTC
الرؤية: 5000 متر
غيوم مفككة على ارتفاع 800 قدم
ملبد بالغيوم على ارتفاع 7000 قدم
رذاذ
أصبح
من 16 الساعة 12 UTC إلى 16 الساعة 14 UTC
الرؤية 10 كم أو أكثر

TAF: SLYA 160400Z 1606/1706 00000KT 9999 SCT010 BKN070 TX20/1519Z TN07/1611Z BECMG 1608/1610 5000 DZ BKN008 OVC070 BECMG 1612/1614 9999 NSW

أرصاد الطقس والتوقعات من أكثر من 4000 مطار (تقارير الطقس للمطار METAR والتنبؤ بالطقس بالمطارTAF).

المحطات المتاحة هي النقط الصفراء والحمراء على الخريطة.

حرك المؤشر فوق النقطة لمعرفة اسم المحطة.

ثم انقر لمعرفة أرصاد وتوقعات الطقس.

لتغيير الخارطة: اضغط على الأزرار الخضراء مع رمز الصليب الأسود للتكبير. على الزر الأخضر مع شرطة للتصغير، أو على الأسهم الخضراء للخرائط المجاورة.


METAR-TAF: